sensor_id;sensor_type;location;lat;lon;timestamp;pressure;altitude;pressure_sealevel;temperature
37414;BMP280;23279;46.472;30.760;2023-03-15T00:00:53;77289.22;;;-146.33
37414;BMP280;23279;46.472;30.760;2023-03-15T00:03:20;77311.59;;;-146.33
37414;BMP280;23279;46.472;30.760;2023-03-15T00:05:47;77311.59;;;-146.33
37414;BMP280;23279;46.472;30.760;2023-03-15T00:08:14;77313.63;;;-146.33
37414;BMP280;23279;46.472;30.760;2023-03-15T00:10:44;77327.88;;;-146.33
37414;BMP280;23279;46.472;30.760;2023-03-15T00:13:10;77356.38;;;-146.33
37414;BMP280;23279;46.472;30.760;2023-03-15T00:15:36;77372.63;;;-146.33
37414;BMP280;23279;46.472;30.760;2023-03-15T00:18:08;77388.91;;;-146.33
37414;BMP280;23279;46.472;30.760;2023-03-15T00:20:35;77405.19;;;-146.33
37414;BMP280;23279;46.472;30.760;2023-03-15T00:23:01;77401.13;;;-146.33
37414;BMP280;23279;46.472;30.760;2023-03-15T00:25:26;77380.78;;;-146.33
37414;BMP280;23279;46.472;30.760;2023-03-15T00:27:52;77378.75;;;-146.33
37414;BMP280;23279;46.472;30.760;2023-03-15T00:30:17;77382.81;;;-146.33
37414;BMP280;23279;46.472;30.760;2023-03-15T00:32:42;77386.88;;;-146.33
37414;BMP280;23279;46.472;30.760;2023-03-15T00:35:10;77403.16;;;-146.33
37414;BMP280;23279;46.472;30.760;2023-03-15T00:37:37;77380.78;;;-146.33
37414;BMP280;23279;46.472;30.760;2023-03-15T00:40:03;77370.59;;;-146.33
37414;BMP280;23279;46.472;30.760;2023-03-15T00:42:30;77390.94;;;-146.33
37414;BMP280;23279;46.472;30.760;2023-03-15T00:44:55;77380.78;;;-146.33
37414;BMP280;23279;46.472;30.760;2023-03-15T00:47:21;77388.91;;;-146.33
37414;BMP280;23279;46.472;30.760;2023-03-15T00:49:46;77405.19;;;-146.33
37414;BMP280;23279;46.472;30.760;2023-03-15T00:52:12;77407.22;;;-146.33
37414;BMP280;23279;46.472;30.760;2023-03-15T00:54:37;77395.03;;;-146.33
37414;BMP280;23279;46.472;30.760;2023-03-15T00:57:03;77397.06;;;-146.33
37414;BMP280;23279;46.472;30.760;2023-03-15T00:59:31;77380.78;;;-146.33
37414;BMP280;23279;46.472;30.760;2023-03-15T01:02:04;77376.72;;;-146.33
37414;BMP280;23279;46.472;30.760;2023-03-15T01:04:30;77364.50;;;-146.33
37414;BMP280;23279;46.472;30.760;2023-03-15T01:06:57;77354.34;;;-146.33
37414;BMP280;23279;46.472;30.760;2023-03-15T01:09:22;77376.72;;;-146.33
37414;BMP280;23279;46.472;30.760;2023-03-15T01:11:48;77333.97;;;-146.33
37414;BMP280;23279;46.472;30.760;2023-03-15T01:14:13;77362.47;;;-146.33
37414;BMP280;23279;46.472;30.760;2023-03-15T01:16:39;77352.28;;;-146.33
37414;BMP280;23279;46.472;30.760;2023-03-15T01:19:04;77405.19;;;-146.33
37414;BMP280;23279;46.472;30.760;2023-03-15T01:21:30;77395.03;;;-146.33
37414;BMP280;23279;46.472;30.760;2023-03-15T01:23:55;77376.72;;;-146.33
37414;BMP280;23279;46.472;30.760;2023-03-15T01:26:21;77384.84;;;-146.33
37414;BMP280;23279;46.472;30.760;2023-03-15T01:28:46;77395.03;;;-146.33
37414;BMP280;23279;46.472;30.760;2023-03-15T01:31:21;77413.31;;;-146.33
37414;BMP280;23279;46.472;30.760;2023-03-15T01:33:47;77498.78;;;-146.33
37414;BMP280;23279;46.472;30.760;2023-03-15T01:36:12;77529.28;;;-146.33
37414;BMP280;23279;46.472;30.760;2023-03-15T01:38:38;77539.47;;;-146.33
37414;BMP280;23279;46.472;30.760;2023-03-15T01:41:04;77535.41;;;-146.33
37414;BMP280;23279;46.472;30.760;2023-03-15T01:43:30;77590.34;;;-146.33
37414;BMP280;23279;46.472;30.760;2023-03-15T01:51:27;77565.91;;;-146.33
37414;BMP280;23279;46.472;30.760;2023-03-15T01:54:49;77572.03;;;-146.33
37414;BMP280;23279;46.472;30.760;2023-03-15T01:57:08;77567.94;;;-146.33
37414;BMP280;23279;46.472;30.760;2023-03-15T01:59:38;77555.75;;;-146.33
37414;BMP280;23279;46.472;30.760;2023-03-15T02:02:05;77559.81;;;-146.33
37414;BMP280;23279;46.472;30.760;2023-03-15T02:04:39;77557.78;;;-146.33
37414;BMP280;23279;46.472;30.760;2023-03-15T02:07:06;77555.75;;;-146.33
37414;BMP280;23279;46.472;30.760;2023-03-15T02:09:41;77559.81;;;-146.33
37414;BMP280;23279;46.472;30.760;2023-03-15T02:12:09;77572.03;;;-146.33
37414;BMP280;23279;46.472;30.760;2023-03-15T02:14:35;77563.88;;;-146.33
37414;BMP280;23279;46.472;30.760;2023-03-15T02:17:01;77592.38;;;-146.33
37414;BMP280;23279;46.472;30.760;2023-03-15T02:24:57;77567.94;;;-146.33
37414;BMP280;23279;46.472;30.760;2023-03-15T02:27:31;77572.03;;;-146.33
37414;BMP280;23279;46.472;30.760;2023-03-15T02:29:59;77608.66;;;-146.33
37414;BMP280;23279;46.472;30.760;2023-03-15T02:32:28;77629.00;;;-146.33
37414;BMP280;23279;46.472;30.760;2023-03-15T02:34:53;77608.66;;;-146.33
37414;BMP280;23279;46.472;30.760;2023-03-15T02:37:18;77594.41;;;-146.33
37414;BMP280;23279;46.472;30.760;2023-03-15T02:39:45;77598.47;;;-146.33
37414;BMP280;23279;46.472;30.760;2023-03-15T02:42:11;77629.00;;;-146.33
37414;BMP280;23279;46.472;30.760;2023-03-15T02:44:38;77649.34;;;-146.33
37414;BMP280;23279;46.472;30.760;2023-03-15T02:47:09;77637.13;;;-146.33
37414;BMP280;23279;46.472;30.760;2023-03-15T02:49:39;77647.31;;;-146.33
37414;BMP280;23279;46.472;30.760;2023-03-15T02:52:07;77663.59;;;-146.33
37414;BMP280;23279;46.472;30.760;2023-03-15T02:54:32;77645.28;;;-146.33
37414;BMP280;23279;46.472;30.760;2023-03-15T02:56:59;77665.63;;;-146.33
37414;BMP280;23279;46.472;30.760;2023-03-15T02:59:25;77657.47;;;-146.33
37414;BMP280;23279;46.472;30.760;2023-03-15T03:01:51;77677.81;;;-146.33
37414;BMP280;23279;46.472;30.760;2023-03-15T03:04:16;77641.19;;;-146.33
37414;BMP280;23279;46.472;30.760;2023-03-15T03:06:41;77665.63;;;-146.33
37414;BMP280;23279;46.472;30.760;2023-03-15T03:09:09;77685.97;;;-146.33
37414;BMP280;23279;46.472;30.760;2023-03-15T03:11:34;77698.16;;;-146.33
37414;BMP280;23279;46.472;30.760;2023-03-15T03:13:59;77730.72;;;-146.33
37414;BMP280;23279;46.472;30.760;2023-03-15T03:16:25;77704.28;;;-146.33
37414;BMP280;23279;46.472;30.760;2023-03-15T03:18:50;77665.63;;;-146.33
37414;BMP280;23279;46.472;30.760;2023-03-15T03:21:16;77665.63;;;-146.33
37414;BMP280;23279;46.472;30.760;2023-03-15T03:23:41;77681.88;;;-146.33
37414;BMP280;23279;46.472;30.760;2023-03-15T03:26:15;77698.16;;;-146.33
37414;BMP280;23279;46.472;30.760;2023-03-15T03:28:43;77736.81;;;-146.33
37414;BMP280;23279;46.472;30.760;2023-03-15T03:31:24;77747.00;;;-146.33
37414;BMP280;23279;46.472;30.760;2023-03-15T03:33:50;77751.06;;;-146.33
37414;BMP280;23279;46.472;30.760;2023-03-15T03:36:16;77751.06;;;-146.33
37414;BMP280;23279;46.472;30.760;2023-03-15T03:38:44;77775.50;;;-146.33
37414;BMP280;23279;46.472;30.760;2023-03-15T03:41:11;77787.69;;;-146.33
37414;BMP280;23279;46.472;30.760;2023-03-15T03:43:37;77848.75;;;-146.33
37414;BMP280;23279;46.472;30.760;2023-03-15T03:46:03;77820.25;;;-146.33
37414;BMP280;23279;46.472;30.760;2023-03-15T03:48:29;77840.59;;;-146.33
37414;BMP280;23279;46.472;30.760;2023-03-15T03:50:55;77844.66;;;-146.33
37414;BMP280;23279;46.472;30.760;2023-03-15T03:53:21;77816.19;;;-146.33
37414;BMP280;23279;46.472;30.760;2023-03-15T03:55:46;77781.59;;;-146.33
37414;BMP280;23279;46.472;30.760;2023-03-15T03:58:11;77757.19;;;-146.33
37414;BMP280;23279;46.472;30.760;2023-03-15T04:00:37;77769.38;;;-146.33
37414;BMP280;23279;46.472;30.760;2023-03-15T04:03:03;77775.50;;;-146.33
37414;BMP280;23279;46.472;30.760;2023-03-15T04:05:29;77759.22;;;-146.33
37414;BMP280;23279;46.472;30.760;2023-03-15T04:07:54;77726.66;;;-146.33
37414;BMP280;23279;46.472;30.760;2023-03-15T04:10:20;77669.69;;;-146.33
37414;BMP280;23279;46.472;30.760;2023-03-15T04:12:55;77673.75;;;-146.33
37414;BMP280;23279;46.472;30.760;2023-03-15T04:15:21;77653.41;;;-146.33
37414;BMP280;23279;46.472;30.760;2023-03-15T04:17:50;77608.66;;;-146.33
37414;BMP280;23279;46.472;30.760;2023-03-15T04:20:24;77598.47;;;-146.33
37414;BMP280;23279;46.472;30.760;2023-03-15T04:22:50;77574.06;;;-146.33
37414;BMP280;23279;46.472;30.760;2023-03-15T04:25:16;77502.84;;;-146.33
37414;BMP280;23279;46.472;30.760;2023-03-15T04:27:42;77500.81;;;-146.33
37414;BMP280;23279;46.472;30.760;2023-03-15T04:30:08;77529.28;;;-146.33
37414;BMP280;23279;46.472;30.760;2023-03-15T04:32:34;77539.47;;;-146.33
37414;BMP280;23279;46.472;30.760;2023-03-15T04:34:59;77551.69;;;-146.33
37414;BMP280;23279;46.472;30.760;2023-03-15T04:37:26;77531.34;;;-146.33
37414;BMP280;23279;46.472;30.760;2023-03-15T04:39:52;77502.84;;;-146.33
37414;BMP280;23279;46.472;30.760;2023-03-15T04:42:17;77488.59;;;-146.33
37414;BMP280;23279;46.472;30.760;2023-03-15T04:44:43;77419.44;;;-146.33
37414;BMP280;23279;46.472;30.760;2023-03-15T04:47:08;77340.09;;;-146.33
37414;BMP280;23279;46.472;30.760;2023-03-15T04:49:34;77275.00;;;-146.33
37414;BMP280;23279;46.472;30.760;2023-03-15T04:52:00;77287.19;;;-146.33
37414;BMP280;23279;46.472;30.760;2023-03-15T04:54:26;77297.38;;;-146.33
37414;BMP280;23279;46.472;30.760;2023-03-15T04:56:51;77291.25;;;-146.33
37414;BMP280;23279;46.472;30.760;2023-03-15T04:59:17;77295.34;;;-146.33
37414;BMP280;23279;46.472;30.760;2023-03-15T05:01:42;77344.16;;;-146.33
37414;BMP280;23279;46.472;30.760;2023-03-15T05:04:08;77311.59;;;-146.33
37414;BMP280;23279;46.472;30.760;2023-03-15T05:06:33;77329.91;;;-146.33
37414;BMP280;23279;46.472;30.760;2023-03-15T05:08:58;77352.28;;;-146.33
37414;BMP280;23279;46.472;30.760;2023-03-15T05:11:24;77370.59;;;-146.33
37414;BMP280;23279;46.472;30.760;2023-03-15T05:13:50;77427.56;;;-146.33
37414;BMP280;23279;46.472;30.760;2023-03-15T05:16:15;77395.03;;;-146.33
37414;BMP280;23279;46.472;30.760;2023-03-15T05:18:40;77445.88;;;-146.33
37414;BMP280;23279;46.472;30.760;2023-03-15T05:21:06;77553.72;;;-146.33
37414;BMP280;23279;46.472;30.760;2023-03-15T05:23:31;77576.09;;;-146.33
37414;BMP280;23279;46.472;30.760;2023-03-15T05:25:59;77649.34;;;-146.33
37414;BMP280;23279;46.472;30.760;2023-03-15T05:28:25;77541.50;;;-146.33
37414;BMP280;23279;46.472;30.760;2023-03-15T05:30:51;77588.31;;;-146.33
37414;BMP280;23279;46.472;30.760;2023-03-15T05:33:17;77555.75;;;-146.33
37414;BMP280;23279;46.472;30.760;2023-03-15T05:35:43;77500.81;;;-146.33
37414;BMP280;23279;46.472;30.760;2023-03-15T05:38:12;77567.94;;;-146.33
37414;BMP280;23279;46.472;30.760;2023-03-15T05:40:42;77582.19;;;-146.33
37414;BMP280;23279;46.472;30.760;2023-03-15T05:43:08;77635.09;;;-146.33
37414;BMP280;23279;46.472;30.760;2023-03-15T05:45:33;77614.75;;;-146.33
37414;BMP280;23279;46.472;30.760;2023-03-15T05:47:58;77690.03;;;-146.33
37414;BMP280;23279;46.472;30.760;2023-03-15T05:50:24;77704.28;;;-146.33
37414;BMP280;23279;46.472;30.760;2023-03-15T05:52:50;77594.41;;;-146.33
37414;BMP280;23279;46.472;30.760;2023-03-15T05:55:16;77706.31;;;-146.33
37414;BMP280;23279;46.472;30.760;2023-03-15T05:57:42;77708.34;;;-146.33
37414;BMP280;23279;46.472;30.760;2023-03-15T06:00:08;77775.50;;;-146.33
37414;BMP280;23279;46.472;30.760;2023-03-15T06:02:34;77692.06;;;-146.33
37414;BMP280;23279;46.472;30.760;2023-03-15T06:05:00;77700.22;;;-146.33
37414;BMP280;23279;46.472;30.760;2023-03-15T06:07:25;77747.00;;;-146.33
37414;BMP280;23279;46.472;30.760;2023-03-15T06:09:51;77647.31;;;-146.33
37414;BMP280;23279;46.472;30.760;2023-03-15T06:12:16;77736.81;;;-146.33
37414;BMP280;23279;46.472;30.760;2023-03-15T06:14:42;77692.06;;;-146.33
37414;BMP280;23279;46.472;30.760;2023-03-15T06:17:07;77836.53;;;-146.33
37414;BMP280;23279;46.472;30.760;2023-03-15T06:19:33;77852.81;;;-146.33
37414;BMP280;23279;46.472;30.760;2023-03-15T06:21:58;77828.41;;;-146.33
37414;BMP280;23279;46.472;30.760;2023-03-15T06:24:24;77775.50;;;-146.33
37414;BMP280;23279;46.472;30.760;2023-03-15T06:26:49;77747.00;;;-146.33
37414;BMP280;23279;46.472;30.760;2023-03-15T06:29:15;77773.44;;;-146.33
37414;BMP280;23279;46.472;30.760;2023-03-15T06:31:41;77791.78;;;-146.33
37414;BMP280;23279;46.472;30.760;2023-03-15T06:34:07;77757.19;;;-146.33
37414;BMP280;23279;46.472;30.760;2023-03-15T06:36:33;77742.94;;;-146.33
37414;BMP280;23279;46.472;30.760;2023-03-15T06:38:58;77706.31;;;-146.33
37414;BMP280;23279;46.472;30.760;2023-03-15T06:41:24;77716.47;;;-146.33
37414;BMP280;23279;46.472;30.760;2023-03-15T06:43:51;77708.34;;;-146.33
37414;BMP280;23279;46.472;30.760;2023-03-15T06:46:16;77675.78;;;-146.33
37414;BMP280;23279;46.472;30.760;2023-03-15T06:48:41;77661.53;;;-146.33
37414;BMP280;23279;46.472;30.760;2023-03-15T06:51:07;77620.84;;;-146.33
37414;BMP280;23279;46.472;30.760;2023-03-15T06:53:33;77578.13;;;-146.33
37414;BMP280;23279;46.472;30.760;2023-03-15T06:55:59;77531.34;;;-146.33
37414;BMP280;23279;46.472;30.760;2023-03-15T06:58:25;77425.53;;;-146.33
37414;BMP280;23279;46.472;30.760;2023-03-15T07:00:50;77388.91;;;-146.33
37414;BMP280;23279;46.472;30.760;2023-03-15T07:03:16;77348.22;;;-146.33
37414;BMP280;23279;46.472;30.760;2023-03-15T07:05:43;77299.41;;;-146.33
37414;BMP280;23279;46.472;30.760;2023-03-15T07:08:09;77244.47;;;-146.33
37414;BMP280;23279;46.472;30.760;2023-03-15T07:10:35;77218.03;;;-146.33
37414;BMP280;23279;46.472;30.760;2023-03-15T07:13:00;77169.19;;;-146.33
37414;BMP280;23279;46.472;30.760;2023-03-15T07:15:26;77163.09;;;-146.33
37414;BMP280;23279;46.472;30.760;2023-03-15T07:17:52;77154.97;;;-146.33
37414;BMP280;23279;46.472;30.760;2023-03-15T07:20:18;77140.72;;;-146.33
37414;BMP280;23279;46.472;30.760;2023-03-15T07:22:43;77136.66;;;-146.33
37414;BMP280;23279;46.472;30.760;2023-03-15T07:25:09;77136.66;;;-146.33
37414;BMP280;23279;46.472;30.760;2023-03-15T07:27:35;77150.91;;;-146.33
37414;BMP280;23279;46.472;30.760;2023-03-15T07:30:01;77150.91;;;-146.33
37414;BMP280;23279;46.472;30.760;2023-03-15T07:32:26;77136.66;;;-146.33
37414;BMP280;23279;46.472;30.760;2023-03-15T07:34:51;77157.00;;;-146.33
37414;BMP280;23279;46.472;30.760;2023-03-15T07:37:18;77191.59;;;-146.33
37414;BMP280;23279;46.472;30.760;2023-03-15T07:39:44;77197.69;;;-146.33
37414;BMP280;23279;46.472;30.760;2023-03-15T07:42:09;77181.41;;;-146.33
37414;BMP280;23279;46.472;30.760;2023-03-15T07:44:35;77189.53;;;-146.33
37414;BMP280;23279;46.472;30.760;2023-03-15T07:47:00;77185.47;;;-146.33
37414;BMP280;23279;46.472;30.760;2023-03-15T07:49:26;77183.44;;;-146.33
37414;BMP280;23279;46.472;30.760;2023-03-15T07:51:54;77177.34;;;-146.33
37414;BMP280;23279;46.472;30.760;2023-03-15T07:54:19;77203.78;;;-146.33
37414;BMP280;23279;46.472;30.760;2023-03-15T07:56:45;77238.38;;;-146.33
37414;BMP280;23279;46.472;30.760;2023-03-15T07:59:10;77244.47;;;-146.33
37414;BMP280;23279;46.472;30.760;2023-03-15T08:01:36;77230.22;;;-146.33
37414;BMP280;23279;46.472;30.760;2023-03-15T08:04:01;77234.31;;;-146.33
37414;BMP280;23279;46.472;30.760;2023-03-15T08:06:27;77228.19;;;-146.33
37414;BMP280;23279;46.472;30.760;2023-03-15T08:08:52;77213.97;;;-146.33
37414;BMP280;23279;46.472;30.760;2023-03-15T08:11:17;77242.44;;;-146.33
37414;BMP280;23279;46.472;30.760;2023-03-15T08:13:43;77199.72;;;-146.33
37414;BMP280;23279;46.472;30.760;2023-03-15T08:16:08;77148.84;;;-146.33
37414;BMP280;23279;46.472;30.760;2023-03-15T08:18:34;77205.81;;;-146.33
37414;BMP280;23279;46.472;30.760;2023-03-15T08:20:59;77209.88;;;-146.33
37414;BMP280;23279;46.472;30.760;2023-03-15T08:23:25;77211.94;;;-146.33
37414;BMP280;23279;46.472;30.760;2023-03-15T08:25:50;77213.97;;;-146.33
37414;BMP280;23279;46.472;30.760;2023-03-15T08:28:16;77234.31;;;-146.33
37414;BMP280;23279;46.472;30.760;2023-03-15T08:30:42;77285.16;;;-146.33
37414;BMP280;23279;46.472;30.760;2023-03-15T08:33:07;77315.69;;;-146.33
37414;BMP280;23279;46.472;30.760;2023-03-15T08:35:33;77307.53;;;-146.33
37414;BMP280;23279;46.472;30.760;2023-03-15T08:38:00;77333.97;;;-146.33
37414;BMP280;23279;46.472;30.760;2023-03-15T08:40:27;77311.59;;;-146.33
37414;BMP280;23279;46.472;30.760;2023-03-15T08:42:54;77319.75;;;-146.33
37414;BMP280;23279;46.472;30.760;2023-03-15T08:45:20;77325.84;;;-146.33
37414;BMP280;23279;46.472;30.760;2023-03-15T08:47:48;77291.25;;;-146.33
37414;BMP280;23279;46.472;30.760;2023-03-15T08:50:15;77230.22;;;-146.33
37414;BMP280;23279;46.472;30.760;2023-03-15T08:52:41;77205.81;;;-146.33
37414;BMP280;23279;46.472;30.760;2023-03-15T08:55:07;77205.81;;;-146.33
37414;BMP280;23279;46.472;30.760;2023-03-15T08:57:33;77189.53;;;-146.33
37414;BMP280;23279;46.472;30.760;2023-03-15T08:59:59;77175.31;;;-146.33
37414;BMP280;23279;46.472;30.760;2023-03-15T09:02:26;77213.97;;;-146.33
37414;BMP280;23279;46.472;30.760;2023-03-15T09:04:52;77185.47;;;-146.33
37414;BMP280;23279;46.472;30.760;2023-03-15T09:07:17;77161.06;;;-146.33
37414;BMP280;23279;46.472;30.760;2023-03-15T09:09:43;77161.06;;;-146.33
37414;BMP280;23279;46.472;30.760;2023-03-15T09:12:15;77191.59;;;-146.33
37414;BMP280;23279;46.472;30.760;2023-03-15T09:14:41;77226.16;;;-146.33
37414;BMP280;23279;46.472;30.760;2023-03-15T09:17:09;77234.31;;;-146.33
37414;BMP280;23279;46.472;30.760;2023-03-15T09:19:34;77230.22;;;-146.33
37414;BMP280;23279;46.472;30.760;2023-03-15T09:22:00;77297.38;;;-146.33
37414;BMP280;23279;46.472;30.760;2023-03-15T09:24:26;77319.75;;;-146.33
37414;BMP280;23279;46.472;30.760;2023-03-15T09:26:51;77338.06;;;-146.33
37414;BMP280;23279;46.472;30.760;2023-03-15T09:29:17;77376.72;;;-146.33
37414;BMP280;23279;46.472;30.760;2023-03-15T09:31:42;77384.84;;;-146.33
37414;BMP280;23279;46.472;30.760;2023-03-15T09:34:08;77401.13;;;-146.33
37414;BMP280;23279;46.472;30.760;2023-03-15T09:36:33;77421.47;;;-146.33
37414;BMP280;23279;46.472;30.760;2023-03-15T09:38:59;77429.59;;;-146.33
37414;BMP280;23279;46.472;30.760;2023-03-15T09:41:51;77401.13;;;-146.33
37414;BMP280;23279;46.472;30.760;2023-03-15T09:44:43;77350.25;;;-146.33
37414;BMP280;23279;46.472;30.760;2023-03-15T09:50:02;77346.19;;;-146.33
37414;BMP280;23279;46.472;30.760;2023-03-15T09:52:33;77295.34;;;-146.33
37414;BMP280;23279;46.472;30.760;2023-03-15T09:55:17;77266.84;;;-146.33
37414;BMP280;23279;46.472;30.760;2023-03-15T09:58:12;77250.56;;;-146.33
37414;BMP280;23279;46.472;30.760;2023-03-15T10:00:43;77283.13;;;-146.33
37414;BMP280;23279;46.472;30.760;2023-03-15T10:03:20;77305.50;;;-146.33
37414;BMP280;23279;46.472;30.760;2023-03-15T10:05:54;77364.50;;;-146.33
37414;BMP280;23279;46.472;30.760;2023-03-15T10:08:20;77352.28;;;-146.33
37414;BMP280;23279;46.472;30.760;2023-03-15T10:11:09;77380.78;;;-146.33
37414;BMP280;23279;46.472;30.760;2023-03-15T10:16:38;77327.88;;;-146.33
37414;BMP280;23279;46.472;30.760;2023-03-15T10:19:05;77329.91;;;-146.33
37414;BMP280;23279;46.472;30.760;2023-03-15T10:24:33;77360.44;;;-146.33
37414;BMP280;23279;46.472;30.760;2023-03-15T10:27:12;77327.88;;;-146.33
37414;BMP280;23279;46.472;30.760;2023-03-15T10:29:38;77336.03;;;-146.33
37414;BMP280;23279;46.472;30.760;2023-03-15T10:32:04;77327.88;;;-146.33
37414;BMP280;23279;46.472;30.760;2023-03-15T10:34:30;77348.22;;;-146.33
37414;BMP280;23279;46.472;30.760;2023-03-15T10:36:56;77336.03;;;-146.33
37414;BMP280;23279;46.472;30.760;2023-03-15T10:39:23;77317.72;;;-146.33
37414;BMP280;23279;46.472;30.760;2023-03-15T10:41:50;77346.19;;;-146.33
37414;BMP280;23279;46.472;30.760;2023-03-15T10:44:19;77354.34;;;-146.33
37414;BMP280;23279;46.472;30.760;2023-03-15T10:49:32;77360.44;;;-146.33
37414;BMP280;23279;46.472;30.760;2023-03-15T10:51:58;77372.63;;;-146.33
37414;BMP280;23279;46.472;30.760;2023-03-15T10:54:24;77348.22;;;-146.33
37414;BMP280;23279;46.472;30.760;2023-03-15T10:59:28;77362.47;;;-146.33
37414;BMP280;23279;46.472;30.760;2023-03-15T11:02:14;77321.78;;;-146.33
37414;BMP280;23279;46.472;30.760;2023-03-15T11:04:46;77287.19;;;-146.33
37414;BMP280;23279;46.472;30.760;2023-03-15T11:07:12;77260.75;;;-146.33
37414;BMP280;23279;46.472;30.760;2023-03-15T11:09:43;77209.88;;;-146.33
37414;BMP280;23279;46.472;30.760;2023-03-15T11:12:15;77144.78;;;-146.33
37414;BMP280;23279;46.472;30.760;2023-03-15T11:14:47;77108.19;;;-146.33
37414;BMP280;23279;46.472;30.760;2023-03-15T11:17:22;77075.63;;;-146.33
37414;BMP280;23279;46.472;30.760;2023-03-15T11:22:42;76990.19;;;-146.33
37414;BMP280;23279;46.472;30.760;2023-03-15T11:25:14;76973.91;;;-146.33
37414;BMP280;23279;46.472;30.760;2023-03-15T11:27:41;76912.88;;;-146.33
37414;BMP280;23279;46.472;30.760;2023-03-15T11:30:15;76886.44;;;-146.33
37414;BMP280;23279;46.472;30.760;2023-03-15T11:32:42;76870.19;;;-146.33
37414;BMP280;23279;46.472;30.760;2023-03-15T11:35:18;76853.91;;;-146.33
37414;BMP280;23279;46.472;30.760;2023-03-15T11:37:51;76815.25;;;-146.33
37414;BMP280;23279;46.472;30.760;2023-03-15T11:40:32;76798.97;;;-146.33
37414;BMP280;23279;46.472;30.760;2023-03-15T11:43:05;76776.59;;;-146.33
37414;BMP280;23279;46.472;30.760;2023-03-15T11:45:42;76774.56;;;-146.33
37414;BMP280;23279;46.472;30.760;2023-03-15T11:48:33;76750.16;;;-146.33
37414;BMP280;23279;46.472;30.760;2023-03-15T11:51:01;76750.16;;;-146.33
37414;BMP280;23279;46.472;30.760;2023-03-15T11:53:33;76746.09;;;-146.33
37414;BMP280;23279;46.472;30.760;2023-03-15T11:56:19;76725.75;;;-146.33
37414;BMP280;23279;46.472;30.760;2023-03-15T11:58:59;76729.81;;;-146.33
37414;BMP280;23279;46.472;30.760;2023-03-15T12:01:26;76727.78;;;-146.33
37414;BMP280;23279;46.472;30.760;2023-03-15T12:06:53;76709.50;;;-146.33
37414;BMP280;23279;46.472;30.760;2023-03-15T12:14:34;76740.00;;;-146.33
37414;BMP280;23279;46.472;30.760;2023-03-15T12:22:34;76754.22;;;-146.33
37414;BMP280;23279;46.472;30.760;2023-03-15T12:25:28;76748.13;;;-146.33
37414;BMP280;23279;46.472;30.760;2023-03-15T12:27:56;76760.34;;;-146.33
37414;BMP280;23279;46.472;30.760;2023-03-15T12:30:31;76758.31;;;-146.33
37414;BMP280;23279;46.472;30.760;2023-03-15T12:32:58;76758.31;;;-146.33
37414;BMP280;23279;46.472;30.760;2023-03-15T12:35:37;76762.38;;;-146.33
37414;BMP280;23279;46.472;30.760;2023-03-15T12:38:19;76750.16;;;-146.33
37414;BMP280;23279;46.472;30.760;2023-03-15T12:40:55;76729.81;;;-146.33
37414;BMP280;23279;46.472;30.760;2023-03-15T12:43:35;76737.97;;;-146.33
37414;BMP280;23279;46.472;30.760;2023-03-15T12:46:01;76740.00;;;-146.33
37414;BMP280;23279;46.472;30.760;2023-03-15T12:48:27;76754.22;;;-146.33
37414;BMP280;23279;46.472;30.760;2023-03-15T12:50:55;76750.16;;;-146.33
37414;BMP280;23279;46.472;30.760;2023-03-15T12:53:47;76737.97;;;-146.33
37414;BMP280;23279;46.472;30.760;2023-03-15T12:58:52;76727.78;;;-146.33
37414;BMP280;23279;46.472;30.760;2023-03-15T13:01:19;76744.06;;;-146.33
37414;BMP280;23279;46.472;30.760;2023-03-15T13:03:53;76756.28;;;-146.33
37414;BMP280;23279;46.472;30.760;2023-03-15T13:12:22;76766.44;;;-146.33
37414;BMP280;23279;46.472;30.760;2023-03-15T13:17:34;76740.00;;;-146.33
37414;BMP280;23279;46.472;30.760;2023-03-15T13:28:31;76762.38;;;-146.33
37414;BMP280;23279;46.472;30.760;2023-03-15T13:31:10;76758.31;;;-146.33
37414;BMP280;23279;46.472;30.760;2023-03-15T13:33:38;76754.22;;;-146.33
37414;BMP280;23279;46.472;30.760;2023-03-15T13:36:10;76774.56;;;-146.33
37414;BMP280;23279;46.472;30.760;2023-03-15T13:41:03;76774.56;;;-146.33
37414;BMP280;23279;46.472;30.760;2023-03-15T13:43:35;76786.78;;;-146.33
37414;BMP280;23279;46.472;30.760;2023-03-15T13:46:01;76790.84;;;-146.33
37414;BMP280;23279;46.472;30.760;2023-03-15T13:48:32;76790.84;;;-146.33
37414;BMP280;23279;46.472;30.760;2023-03-15T13:53:45;76794.91;;;-146.33
37414;BMP280;23279;46.472;30.760;2023-03-15T13:56:36;76811.19;;;-146.33
37414;BMP280;23279;46.472;30.760;2023-03-15T13:59:02;76805.09;;;-146.33
37414;BMP280;23279;46.472;30.760;2023-03-15T14:01:31;76817.28;;;-146.33
37414;BMP280;23279;46.472;30.760;2023-03-15T14:04:05;76811.19;;;-146.33
37414;BMP280;23279;46.472;30.760;2023-03-15T14:06:31;76807.13;;;-146.33
37414;BMP280;23279;46.472;30.760;2023-03-15T14:09:09;76811.19;;;-146.33
37414;BMP280;23279;46.472;30.760;2023-03-15T14:11:37;76815.25;;;-146.33
37414;BMP280;23279;46.472;30.760;2023-03-15T14:14:26;76811.19;;;-146.33
37414;BMP280;23279;46.472;30.760;2023-03-15T14:16:53;76823.38;;;-146.33
37414;BMP280;23279;46.472;30.760;2023-03-15T14:19:19;76825.44;;;-146.33
37414;BMP280;23279;46.472;30.760;2023-03-15T14:21:50;76825.44;;;-146.33
37414;BMP280;23279;46.472;30.760;2023-03-15T14:24:39;76855.94;;;-146.33
37414;BMP280;23279;46.472;30.760;2023-03-15T14:27:14;76849.84;;;-146.33
37414;BMP280;23279;46.472;30.760;2023-03-15T14:29:49;76860.00;;;-146.33
37414;BMP280;23279;46.472;30.760;2023-03-15T14:32:33;76874.25;;;-146.33
37414;BMP280;23279;46.472;30.760;2023-03-15T14:35:44;76880.34;;;-146.33
37414;BMP280;23279;46.472;30.760;2023-03-15T14:38:12;76880.34;;;-146.33
37414;BMP280;23279;46.472;30.760;2023-03-15T14:40:39;76886.44;;;-146.33
37414;BMP280;23279;46.472;30.760;2023-03-15T14:43:06;76894.59;;;-146.33
37414;BMP280;23279;46.472;30.760;2023-03-15T14:45:33;76896.63;;;-146.33